sensor_id;sensor_type;location;lat;lon;timestamp;temperature;humidity
82039;DHT22;71610;42.628;23.378;2024-02-26T00:01:41;20.70;33.70
82039;DHT22;71610;42.628;23.378;2024-02-26T00:04:09;20.70;33.60
82039;DHT22;71610;42.628;23.378;2024-02-26T00:06:35;20.80;33.70
82039;DHT22;71610;42.628;23.378;2024-02-26T00:09:01;20.80;33.60
82039;DHT22;71610;42.628;23.378;2024-02-26T00:11:28;20.80;33.70
82039;DHT22;71610;42.628;23.378;2024-02-26T00:13:54;20.80;33.60
82039;DHT22;71610;42.628;23.378;2024-02-26T00:16:19;20.80;33.60
82039;DHT22;71610;42.628;23.378;2024-02-26T00:18:45;20.80;33.60
82039;DHT22;71610;42.628;23.378;2024-02-26T00:21:11;20.80;33.60
82039;DHT22;71610;42.628;23.378;2024-02-26T00:23:37;20.80;34.70
82039;DHT22;71610;42.628;23.378;2024-02-26T00:26:03;20.80;33.60
82039;DHT22;71610;42.628;23.378;2024-02-26T00:28:29;20.80;33.60
82039;DHT22;71610;42.628;23.378;2024-02-26T00:30:55;20.80;33.50
82039;DHT22;71610;42.628;23.378;2024-02-26T00:33:22;20.80;33.60
82039;DHT22;71610;42.628;23.378;2024-02-26T00:35:48;20.80;33.50
82039;DHT22;71610;42.628;23.378;2024-02-26T00:38:14;20.80;33.60
82039;DHT22;71610;42.628;23.378;2024-02-26T00:40:40;20.90;33.50
82039;DHT22;71610;42.628;23.378;2024-02-26T00:43:09;20.90;33.60
82039;DHT22;71610;42.628;23.378;2024-02-26T00:45:34;20.90;33.50
82039;DHT22;71610;42.628;23.378;2024-02-26T00:48:00;20.90;33.50
82039;DHT22;71610;42.628;23.378;2024-02-26T00:50:33;20.90;33.60
82039;DHT22;71610;42.628;23.378;2024-02-26T00:52:59;20.90;33.60
82039;DHT22;71610;42.628;23.378;2024-02-26T00:55:25;20.90;33.50
82039;DHT22;71610;42.628;23.378;2024-02-26T00:57:51;20.80;34.60
82039;DHT22;71610;42.628;23.378;2024-02-26T01:00:17;20.90;33.50
82039;DHT22;71610;42.628;23.378;2024-02-26T01:02:43;20.90;33.40
82039;DHT22;71610;42.628;23.378;2024-02-26T01:05:12;20.90;33.50
82039;DHT22;71610;42.628;23.378;2024-02-26T01:07:38;20.90;33.50
82039;DHT22;71610;42.628;23.378;2024-02-26T01:10:05;20.90;33.50
82039;DHT22;71610;42.628;23.378;2024-02-26T01:12:32;20.90;33.40
82039;DHT22;71610;42.628;23.378;2024-02-26T01:14:58;20.90;33.40
82039;DHT22;71610;42.628;23.378;2024-02-26T01:17:24;20.90;33.40
82039;DHT22;71610;42.628;23.378;2024-02-26T01:19:49;20.90;33.40
82039;DHT22;71610;42.628;23.378;2024-02-26T01:22:15;20.90;33.40
82039;DHT22;71610;42.628;23.378;2024-02-26T01:24:41;20.90;33.40
82039;DHT22;71610;42.628;23.378;2024-02-26T01:27:06;20.90;33.40
82039;DHT22;71610;42.628;23.378;2024-02-26T01:29:34;20.90;33.40
82039;DHT22;71610;42.628;23.378;2024-02-26T01:32:00;20.90;33.50
82039;DHT22;71610;42.628;23.378;2024-02-26T01:34:25;20.90;33.40
82039;DHT22;71610;42.628;23.378;2024-02-26T01:36:51;20.90;33.40
82039;DHT22;71610;42.628;23.378;2024-02-26T01:39:17;20.90;33.50
82039;DHT22;71610;42.628;23.378;2024-02-26T01:41:43;20.90;33.50
82039;DHT22;71610;42.628;23.378;2024-02-26T01:44:12;21.00;33.50
82039;DHT22;71610;42.628;23.378;2024-02-26T01:46:39;20.90;33.40
82039;DHT22;71610;42.628;23.378;2024-02-26T01:49:04;20.90;33.40
82039;DHT22;71610;42.628;23.378;2024-02-26T01:51:31;20.90;33.50
82039;DHT22;71610;42.628;23.378;2024-02-26T01:53:58;20.90;33.50
82039;DHT22;71610;42.628;23.378;2024-02-26T01:56:26;21.00;33.50
82039;DHT22;71610;42.628;23.378;2024-02-26T01:58:56;21.00;33.50
82039;DHT22;71610;42.628;23.378;2024-02-26T02:01:23;20.90;33.40
82039;DHT22;71610;42.628;23.378;2024-02-26T02:03:51;21.00;33.50
82039;DHT22;71610;42.628;23.378;2024-02-26T02:06:17;21.00;33.50
82039;DHT22;71610;42.628;23.378;2024-02-26T02:08:43;21.00;33.50
82039;DHT22;71610;42.628;23.378;2024-02-26T02:11:09;21.00;33.50
82039;DHT22;71610;42.628;23.378;2024-02-26T02:13:37;21.00;33.50
82039;DHT22;71610;42.628;23.378;2024-02-26T02:16:04;21.00;33.50
82039;DHT22;71610;42.628;23.378;2024-02-26T02:18:30;21.00;33.50
82039;DHT22;71610;42.628;23.378;2024-02-26T02:20:55;21.00;33.50
82039;DHT22;71610;42.628;23.378;2024-02-26T02:23:24;21.00;33.50
82039;DHT22;71610;42.628;23.378;2024-02-26T02:25:51;21.00;33.50
82039;DHT22;71610;42.628;23.378;2024-02-26T02:28:17;21.00;33.50
82039;DHT22;71610;42.628;23.378;2024-02-26T02:30:43;21.00;33.50
82039;DHT22;71610;42.628;23.378;2024-02-26T02:33:09;21.00;33.50
82039;DHT22;71610;42.628;23.378;2024-02-26T02:35:35;21.00;33.50
82039;DHT22;71610;42.628;23.378;2024-02-26T02:38:00;21.00;33.50
82039;DHT22;71610;42.628;23.378;2024-02-26T02:40:26;21.00;33.50
82039;DHT22;71610;42.628;23.378;2024-02-26T02:42:52;21.00;33.50
82039;DHT22;71610;42.628;23.378;2024-02-26T02:45:17;21.00;33.50
82039;DHT22;71610;42.628;23.378;2024-02-26T02:47:43;21.00;33.50
82039;DHT22;71610;42.628;23.378;2024-02-26T02:50:09;21.00;33.50
82039;DHT22;71610;42.628;23.378;2024-02-26T02:52:35;21.00;33.50
82039;DHT22;71610;42.628;23.378;2024-02-26T02:55:01;21.00;33.50
82039;DHT22;71610;42.628;23.378;2024-02-26T02:57:26;21.00;33.50
82039;DHT22;71610;42.628;23.378;2024-02-26T02:59:52;21.00;33.50
82039;DHT22;71610;42.628;23.378;2024-02-26T03:02:18;21.10;33.50
82039;DHT22;71610;42.628;23.378;2024-02-26T03:04:44;21.00;33.50
82039;DHT22;71610;42.628;23.378;2024-02-26T03:07:09;21.00;33.50
82039;DHT22;71610;42.628;23.378;2024-02-26T03:09:35;21.00;33.50
82039;DHT22;71610;42.628;23.378;2024-02-26T03:12:01;21.00;33.40
82039;DHT22;71610;42.628;23.378;2024-02-26T03:14:26;21.00;33.50
82039;DHT22;71610;42.628;23.378;2024-02-26T03:16:56;21.10;33.50
82039;DHT22;71610;42.628;23.378;2024-02-26T03:19:22;21.00;33.40
82039;DHT22;71610;42.628;23.378;2024-02-26T03:21:48;21.00;33.40
82039;DHT22;71610;42.628;23.378;2024-02-26T03:24:13;21.00;33.50
82039;DHT22;71610;42.628;23.378;2024-02-26T03:26:40;21.00;33.60
82039;DHT22;71610;42.628;23.378;2024-02-26T03:29:05;21.00;33.70
82039;DHT22;71610;42.628;23.378;2024-02-26T03:31:31;21.00;33.50
82039;DHT22;71610;42.628;23.378;2024-02-26T03:33:57;21.00;33.50
82039;DHT22;71610;42.628;23.378;2024-02-26T03:36:23;21.00;33.50
82039;DHT22;71610;42.628;23.378;2024-02-26T03:38:49;21.00;33.50
82039;DHT22;71610;42.628;23.378;2024-02-26T03:41:14;21.10;33.60
82039;DHT22;71610;42.628;23.378;2024-02-26T03:43:40;21.00;33.50
82039;DHT22;71610;42.628;23.378;2024-02-26T03:46:09;21.00;33.50
82039;DHT22;71610;42.628;23.378;2024-02-26T03:48:40;21.00;33.50
82039;DHT22;71610;42.628;23.378;2024-02-26T03:51:06;21.00;33.50
82039;DHT22;71610;42.628;23.378;2024-02-26T03:53:33;21.00;33.50
82039;DHT22;71610;42.628;23.378;2024-02-26T03:56:03;21.00;33.50
82039;DHT22;71610;42.628;23.378;2024-02-26T03:58:29;21.00;33.50
82039;DHT22;71610;42.628;23.378;2024-02-26T04:00:54;21.10;33.50
82039;DHT22;71610;42.628;23.378;2024-02-26T04:03:20;21.10;33.60
82039;DHT22;71610;42.628;23.378;2024-02-26T04:05:46;21.00;33.50
82039;DHT22;71610;42.628;23.378;2024-02-26T04:08:12;21.00;33.50
82039;DHT22;71610;42.628;23.378;2024-02-26T04:10:38;21.10;33.60
82039;DHT22;71610;42.628;23.378;2024-02-26T04:13:05;21.10;33.50
82039;DHT22;71610;42.628;23.378;2024-02-26T04:15:31;21.00;33.50
82039;DHT22;71610;42.628;23.378;2024-02-26T04:17:57;21.10;34.70
82039;DHT22;71610;42.628;23.378;2024-02-26T04:20:23;21.10;33.50
82039;DHT22;71610;42.628;23.378;2024-02-26T04:22:49;21.00;33.50
82039;DHT22;71610;42.628;23.378;2024-02-26T04:25:15;21.10;34.70
82039;DHT22;71610;42.628;23.378;2024-02-26T04:27:40;21.10;33.50
82039;DHT22;71610;42.628;23.378;2024-02-26T04:30:07;21.10;34.60
82039;DHT22;71610;42.628;23.378;2024-02-26T04:32:33;21.10;33.50
82039;DHT22;71610;42.628;23.378;2024-02-26T04:35:00;21.10;33.50
82039;DHT22;71610;42.628;23.378;2024-02-26T04:37:26;21.10;33.50
82039;DHT22;71610;42.628;23.378;2024-02-26T04:39:57;21.10;33.50
82039;DHT22;71610;42.628;23.378;2024-02-26T04:42:23;21.10;33.40
82039;DHT22;71610;42.628;23.378;2024-02-26T04:44:49;21.00;33.50
82039;DHT22;71610;42.628;23.378;2024-02-26T04:47:14;21.00;33.50
82039;DHT22;71610;42.628;23.378;2024-02-26T04:49:41;21.00;33.50
82039;DHT22;71610;42.628;23.378;2024-02-26T04:52:06;21.00;33.50
82039;DHT22;71610;42.628;23.378;2024-02-26T04:54:32;21.00;33.50
82039;DHT22;71610;42.628;23.378;2024-02-26T04:56:58;21.10;33.50
82039;DHT22;71610;42.628;23.378;2024-02-26T04:59:24;21.10;33.50
82039;DHT22;71610;42.628;23.378;2024-02-26T05:01:50;21.10;33.50
82039;DHT22;71610;42.628;23.378;2024-02-26T05:04:18;21.10;33.50
82039;DHT22;71610;42.628;23.378;2024-02-26T05:06:44;21.10;33.40
82039;DHT22;71610;42.628;23.378;2024-02-26T05:09:09;21.10;33.40
82039;DHT22;71610;42.628;23.378;2024-02-26T05:11:35;21.10;33.40
82039;DHT22;71610;42.628;23.378;2024-02-26T05:14:01;21.10;33.50
82039;DHT22;71610;42.628;23.378;2024-02-26T05:16:26;21.10;33.70
82039;DHT22;71610;42.628;23.378;2024-02-26T05:18:53;21.10;33.60
82039;DHT22;71610;42.628;23.378;2024-02-26T05:21:19;21.10;33.40
82039;DHT22;71610;42.628;23.378;2024-02-26T05:23:44;21.00;33.80
82039;DHT22;71610;42.628;23.378;2024-02-26T05:26:11;21.00;34.30
82039;DHT22;71610;42.628;23.378;2024-02-26T05:28:36;21.00;34.80
82039;DHT22;71610;42.628;23.378;2024-02-26T05:31:05;21.00;35.20
82039;DHT22;71610;42.628;23.378;2024-02-26T05:33:31;21.00;35.70
82039;DHT22;71610;42.628;23.378;2024-02-26T05:35:57;21.00;36.00
82039;DHT22;71610;42.628;23.378;2024-02-26T05:38:29;21.00;36.60
82039;DHT22;71610;42.628;23.378;2024-02-26T05:40:55;20.90;36.70
82039;DHT22;71610;42.628;23.378;2024-02-26T05:43:20;21.00;36.70
82039;DHT22;71610;42.628;23.378;2024-02-26T05:45:46;20.90;36.70
82039;DHT22;71610;42.628;23.378;2024-02-26T05:48:12;20.90;36.30
82039;DHT22;71610;42.628;23.378;2024-02-26T05:50:37;20.90;36.10
82039;DHT22;71610;42.628;23.378;2024-02-26T05:53:03;20.90;35.80
82039;DHT22;71610;42.628;23.378;2024-02-26T05:55:29;20.80;35.50
82039;DHT22;71610;42.628;23.378;2024-02-26T05:57:55;20.80;35.20
82039;DHT22;71610;42.628;23.378;2024-02-26T06:00:21;20.80;35.30
82039;DHT22;71610;42.628;23.378;2024-02-26T06:02:47;20.80;35.40
82039;DHT22;71610;42.628;23.378;2024-02-26T06:05:12;20.90;35.40
82039;DHT22;71610;42.628;23.378;2024-02-26T06:07:38;21.00;35.10
82039;DHT22;71610;42.628;23.378;2024-02-26T06:10:04;21.20;35.00
82039;DHT22;71610;42.628;23.378;2024-02-26T06:12:30;21.40;34.70
82039;DHT22;71610;42.628;23.378;2024-02-26T06:14:56;21.60;34.50
82039;DHT22;71610;42.628;23.378;2024-02-26T06:17:22;21.70;34.40
82039;DHT22;71610;42.628;23.378;2024-02-26T06:19:48;21.80;34.40
82039;DHT22;71610;42.628;23.378;2024-02-26T06:22:14;21.90;34.50
82039;DHT22;71610;42.628;23.378;2024-02-26T06:24:40;22.00;34.40
82039;DHT22;71610;42.628;23.378;2024-02-26T06:27:06;22.00;34.40
82039;DHT22;71610;42.628;23.378;2024-02-26T06:29:32;22.10;34.50
82039;DHT22;71610;42.628;23.378;2024-02-26T06:31:58;22.20;34.70
82039;DHT22;71610;42.628;23.378;2024-02-26T06:34:24;22.30;34.70
82039;DHT22;71610;42.628;23.378;2024-02-26T06:36:49;22.30;34.80
82039;DHT22;71610;42.628;23.378;2024-02-26T06:39:15;22.40;34.80
82039;DHT22;71610;42.628;23.378;2024-02-26T06:41:41;22.40;34.90
82039;DHT22;71610;42.628;23.378;2024-02-26T06:44:07;22.30;35.00
82039;DHT22;71610;42.628;23.378;2024-02-26T06:46:33;22.30;35.30
82039;DHT22;71610;42.628;23.378;2024-02-26T06:48:58;22.30;35.80
82039;DHT22;71610;42.628;23.378;2024-02-26T06:51:24;22.20;36.30
82039;DHT22;71610;42.628;23.378;2024-02-26T06:53:50;22.20;36.40
82039;DHT22;71610;42.628;23.378;2024-02-26T06:56:16;22.10;37.60
82039;DHT22;71610;42.628;23.378;2024-02-26T06:58:42;22.10;38.60
82039;DHT22;71610;42.628;23.378;2024-02-26T07:01:08;22.10;39.10
82039;DHT22;71610;42.628;23.378;2024-02-26T07:03:34;22.10;39.20
82039;DHT22;71610;42.628;23.378;2024-02-26T07:06:00;22.10;39.00
82039;DHT22;71610;42.628;23.378;2024-02-26T07:08:26;22.00;38.70
82039;DHT22;71610;42.628;23.378;2024-02-26T07:10:52;22.00;39.10
82039;DHT22;71610;42.628;23.378;2024-02-26T07:13:17;22.00;39.30
82039;DHT22;71610;42.628;23.378;2024-02-26T07:15:43;22.00;39.40
82039;DHT22;71610;42.628;23.378;2024-02-26T07:18:09;22.00;39.60
82039;DHT22;71610;42.628;23.378;2024-02-26T07:20:35;22.00;39.60
82039;DHT22;71610;42.628;23.378;2024-02-26T07:23:01;22.00;39.70
82039;DHT22;71610;42.628;23.378;2024-02-26T07:25:28;22.00;39.70
82039;DHT22;71610;42.628;23.378;2024-02-26T07:27:54;22.00;39.70
82039;DHT22;71610;42.628;23.378;2024-02-26T07:30:19;22.00;39.80
82039;DHT22;71610;42.628;23.378;2024-02-26T07:32:45;22.00;40.20
82039;DHT22;71610;42.628;23.378;2024-02-26T07:35:11;22.00;39.90
82039;DHT22;71610;42.628;23.378;2024-02-26T07:37:37;22.00;40.00
82039;DHT22;71610;42.628;23.378;2024-02-26T07:40:03;22.00;41.20
82039;DHT22;71610;42.628;23.378;2024-02-26T07:42:29;22.10;40.30
82039;DHT22;71610;42.628;23.378;2024-02-26T07:44:55;22.10;40.20
82039;DHT22;71610;42.628;23.378;2024-02-26T07:47:21;22.10;40.30
82039;DHT22;71610;42.628;23.378;2024-02-26T07:49:47;22.10;40.40
82039;DHT22;71610;42.628;23.378;2024-02-26T07:52:13;22.20;40.50
82039;DHT22;71610;42.628;23.378;2024-02-26T07:54:38;22.10;40.50
82039;DHT22;71610;42.628;23.378;2024-02-26T07:57:04;22.20;40.60
82039;DHT22;71610;42.628;23.378;2024-02-26T07:59:31;22.20;40.60
82039;DHT22;71610;42.628;23.378;2024-02-26T08:01:57;22.20;40.50
82039;DHT22;71610;42.628;23.378;2024-02-26T08:04:23;22.20;40.40
82039;DHT22;71610;42.628;23.378;2024-02-26T08:06:49;22.20;40.40
82039;DHT22;71610;42.628;23.378;2024-02-26T08:09:14;22.20;40.30
82039;DHT22;71610;42.628;23.378;2024-02-26T08:11:40;22.20;40.20
82039;DHT22;71610;42.628;23.378;2024-02-26T08:14:06;22.20;40.00
82039;DHT22;71610;42.628;23.378;2024-02-26T08:16:31;22.20;39.80
82039;DHT22;71610;42.628;23.378;2024-02-26T08:18:57;22.20;39.70
82039;DHT22;71610;42.628;23.378;2024-02-26T08:21:23;22.20;39.60
82039;DHT22;71610;42.628;23.378;2024-02-26T08:23:49;22.20;39.60
82039;DHT22;71610;42.628;23.378;2024-02-26T08:26:15;22.20;39.60
82039;DHT22;71610;42.628;23.378;2024-02-26T08:28:41;22.20;39.60
82039;DHT22;71610;42.628;23.378;2024-02-26T08:31:06;22.20;39.60
82039;DHT22;71610;42.628;23.378;2024-02-26T08:33:33;22.20;39.60
82039;DHT22;71610;42.628;23.378;2024-02-26T08:36:04;22.20;39.60
82039;DHT22;71610;42.628;23.378;2024-02-26T08:38:30;22.20;39.10
82039;DHT22;71610;42.628;23.378;2024-02-26T08:40:56;22.10;38.20
82039;DHT22;71610;42.628;23.378;2024-02-26T08:43:22;22.10;37.30
82039;DHT22;71610;42.628;23.378;2024-02-26T08:45:47;22.10;36.70
82039;DHT22;71610;42.628;23.378;2024-02-26T08:48:13;22.10;36.10
82039;DHT22;71610;42.628;23.378;2024-02-26T08:50:39;22.10;35.70
82039;DHT22;71610;42.628;23.378;2024-02-26T08:53:05;22.00;35.60
82039;DHT22;71610;42.628;23.378;2024-02-26T08:55:31;22.00;35.60
82039;DHT22;71610;42.628;23.378;2024-02-26T08:57:57;22.00;35.40
82039;DHT22;71610;42.628;23.378;2024-02-26T09:00:22;22.00;35.30
82039;DHT22;71610;42.628;23.378;2024-02-26T09:02:48;22.00;35.30
82039;DHT22;71610;42.628;23.378;2024-02-26T09:05:15;22.00;35.10
82039;DHT22;71610;42.628;23.378;2024-02-26T09:07:40;21.90;34.70
82039;DHT22;71610;42.628;23.378;2024-02-26T09:10:06;21.90;34.40
82039;DHT22;71610;42.628;23.378;2024-02-26T09:12:36;21.90;34.30
82039;DHT22;71610;42.628;23.378;2024-02-26T09:15:02;21.90;34.20
82039;DHT22;71610;42.628;23.378;2024-02-26T09:17:28;21.90;34.20
82039;DHT22;71610;42.628;23.378;2024-02-26T09:19:54;21.90;34.10
82039;DHT22;71610;42.628;23.378;2024-02-26T09:22:20;21.90;34.00
82039;DHT22;71610;42.628;23.378;2024-02-26T09:24:46;21.90;33.70
82039;DHT22;71610;42.628;23.378;2024-02-26T09:27:11;21.90;33.50
82039;DHT22;71610;42.628;23.378;2024-02-26T09:29:37;21.90;33.50
82039;DHT22;71610;42.628;23.378;2024-02-26T09:32:03;21.90;33.50
82039;DHT22;71610;42.628;23.378;2024-02-26T09:34:29;21.90;33.40
82039;DHT22;71610;42.628;23.378;2024-02-26T09:36:55;21.90;33.30
82039;DHT22;71610;42.628;23.378;2024-02-26T09:39:20;21.90;33.00
82039;DHT22;71610;42.628;23.378;2024-02-26T09:41:50;21.90;33.00
82039;DHT22;71610;42.628;23.378;2024-02-26T09:44:18;21.90;33.10
82039;DHT22;71610;42.628;23.378;2024-02-26T09:46:48;21.90;33.70
82039;DHT22;71610;42.628;23.378;2024-02-26T09:49:17;21.90;34.60
82039;DHT22;71610;42.628;23.378;2024-02-26T09:51:44;21.90;35.20
82039;DHT22;71610;42.628;23.378;2024-02-26T09:54:10;21.90;35.70
82039;DHT22;71610;42.628;23.378;2024-02-26T09:56:40;21.90;37.30
82039;DHT22;71610;42.628;23.378;2024-02-26T09:59:10;22.00;36.50
82039;DHT22;71610;42.628;23.378;2024-02-26T10:01:38;22.00;36.60
82039;DHT22;71610;42.628;23.378;2024-02-26T10:04:08;22.00;36.60
82039;DHT22;71610;42.628;23.378;2024-02-26T10:06:37;22.00;36.60
82039;DHT22;71610;42.628;23.378;2024-02-26T10:09:03;22.00;36.50
82039;DHT22;71610;42.628;23.378;2024-02-26T10:11:33;22.10;36.50
82039;DHT22;71610;42.628;23.378;2024-02-26T10:13:58;22.10;36.60
82039;DHT22;71610;42.628;23.378;2024-02-26T10:16:28;22.10;36.90
82039;DHT22;71610;42.628;23.378;2024-02-26T10:18:53;22.10;38.00
82039;DHT22;71610;42.628;23.378;2024-02-26T10:21:22;22.10;39.10
82039;DHT22;71610;42.628;23.378;2024-02-26T10:23:49;22.20;39.90
82039;DHT22;71610;42.628;23.378;2024-02-26T10:26:16;22.20;40.30
82039;DHT22;71610;42.628;23.378;2024-02-26T10:28:43;22.20;40.80
82039;DHT22;71610;42.628;23.378;2024-02-26T10:31:09;22.20;40.90
82039;DHT22;71610;42.628;23.378;2024-02-26T10:33:37;22.10;40.80
82039;DHT22;71610;42.628;23.378;2024-02-26T10:36:07;22.20;40.90
82039;DHT22;71610;42.628;23.378;2024-02-26T10:38:36;22.20;41.00
82039;DHT22;71610;42.628;23.378;2024-02-26T10:41:03;22.20;41.00
82039;DHT22;71610;42.628;23.378;2024-02-26T10:43:29;22.20;40.90
82039;DHT22;71610;42.628;23.378;2024-02-26T10:45:55;22.20;41.10
82039;DHT22;71610;42.628;23.378;2024-02-26T10:48:21;22.20;40.90
82039;DHT22;71610;42.628;23.378;2024-02-26T10:50:47;22.20;40.80
82039;DHT22;71610;42.628;23.378;2024-02-26T10:53:17;22.20;41.10
82039;DHT22;71610;42.628;23.378;2024-02-26T10:56:03;22.30;41.20
82039;DHT22;71610;42.628;23.378;2024-02-26T10:58:31;22.30;41.10
82039;DHT22;71610;42.628;23.378;2024-02-26T11:00:58;22.30;40.90
82039;DHT22;71610;42.628;23.378;2024-02-26T11:03:25;22.30;40.60
82039;DHT22;71610;42.628;23.378;2024-02-26T11:05:52;22.20;40.60
82039;DHT22;71610;42.628;23.378;2024-02-26T11:08:22;22.30;40.60
82039;DHT22;71610;42.628;23.378;2024-02-26T11:10:52;22.30;40.50
82039;DHT22;71610;42.628;23.378;2024-02-26T11:13:18;22.30;40.50
82039;DHT22;71610;42.628;23.378;2024-02-26T11:15:46;22.30;40.50
82039;DHT22;71610;42.628;23.378;2024-02-26T11:18:16;22.30;40.40
82039;DHT22;71610;42.628;23.378;2024-02-26T11:20:44;22.40;40.30
82039;DHT22;71610;42.628;23.378;2024-02-26T11:23:11;22.60;40.00
82039;DHT22;71610;42.628;23.378;2024-02-26T11:25:37;22.70;39.70
82039;DHT22;71610;42.628;23.378;2024-02-26T11:28:08;22.80;39.40
82039;DHT22;71610;42.628;23.378;2024-02-26T11:30:37;22.90;39.20
82039;DHT22;71610;42.628;23.378;2024-02-26T11:33:07;23.00;39.00
82039;DHT22;71610;42.628;23.378;2024-02-26T11:35:36;23.10;38.90
82039;DHT22;71610;42.628;23.378;2024-02-26T11:38:02;23.10;38.90
82039;DHT22;71610;42.628;23.378;2024-02-26T11:40:29;23.10;38.70
82039;DHT22;71610;42.628;23.378;2024-02-26T11:42:56;23.20;38.60
82039;DHT22;71610;42.628;23.378;2024-02-26T11:48:21;23.30;38.50
82039;DHT22;71610;42.628;23.378;2024-02-26T11:50:57;23.40;38.60
82039;DHT22;71610;42.628;23.378;2024-02-26T11:53:28;23.40;38.70
82039;DHT22;71610;42.628;23.378;2024-02-26T11:59:00;23.40;38.50
82039;DHT22;71610;42.628;23.378;2024-02-26T12:01:46;23.50;38.60
82039;DHT22;71610;42.628;23.378;2024-02-26T12:04:26;23.50;38.50
82039;DHT22;71610;42.628;23.378;2024-02-26T12:07:00;23.50;38.50
82039;DHT22;71610;42.628;23.378;2024-02-26T12:09:39;23.50;38.40
82039;DHT22;71610;42.628;23.378;2024-02-26T12:12:09;23.60;38.30
82039;DHT22;71610;42.628;23.378;2024-02-26T12:14:40;23.60;38.20
82039;DHT22;71610;42.628;23.378;2024-02-26T12:17:19;23.60;38.10
82039;DHT22;71610;42.628;23.378;2024-02-26T12:19:45;23.60;38.00
82039;DHT22;71610;42.628;23.378;2024-02-26T12:22:13;23.60;38.00
82039;DHT22;71610;42.628;23.378;2024-02-26T12:24:39;23.60;38.00
82039;DHT22;71610;42.628;23.378;2024-02-26T12:27:05;23.60;38.00
82039;DHT22;71610;42.628;23.378;2024-02-26T12:29:32;23.60;38.10
82039;DHT22;71610;42.628;23.378;2024-02-26T12:31:57;23.70;38.20
82039;DHT22;71610;42.628;23.378;2024-02-26T12:34:23;23.70;38.10
82039;DHT22;71610;42.628;23.378;2024-02-26T12:36:49;23.70;38.10
82039;DHT22;71610;42.628;23.378;2024-02-26T12:39:16;23.70;38.10
82039;DHT22;71610;42.628;23.378;2024-02-26T12:41:42;23.80;38.20
82039;DHT22;71610;42.628;23.378;2024-02-26T12:44:17;23.80;38.30
82039;DHT22;71610;42.628;23.378;2024-02-26T12:46:43;23.80;38.30
82039;DHT22;71610;42.628;23.378;2024-02-26T12:49:14;23.80;38.20
82039;DHT22;71610;42.628;23.378;2024-02-26T12:51:41;23.80;39.30
82039;DHT22;71610;42.628;23.378;2024-02-26T12:54:07;23.80;38.40
82039;DHT22;71610;42.628;23.378;2024-02-26T12:56:34;23.80;38.40
82039;DHT22;71610;42.628;23.378;2024-02-26T12:59:00;23.90;38.50
82039;DHT22;71610;42.628;23.378;2024-02-26T13:01:28;23.80;38.40
82039;DHT22;71610;42.628;23.378;2024-02-26T13:03:54;23.90;38.40
82039;DHT22;71610;42.628;23.378;2024-02-26T13:06:20;23.90;38.40
82039;DHT22;71610;42.628;23.378;2024-02-26T13:08:47;23.90;38.40
82039;DHT22;71610;42.628;23.378;2024-02-26T13:11:13;23.90;38.40
82039;DHT22;71610;42.628;23.378;2024-02-26T13:13:39;23.90;38.30
82039;DHT22;71610;42.628;23.378;2024-02-26T13:16:10;23.90;38.30
82039;DHT22;71610;42.628;23.378;2024-02-26T13:18:39;23.90;38.30
82039;DHT22;71610;42.628;23.378;2024-02-26T13:21:15;23.90;38.20
82039;DHT22;71610;42.628;23.378;2024-02-26T13:23:42;24.00;38.30
82039;DHT22;71610;42.628;23.378;2024-02-26T13:26:09;24.00;38.20
82039;DHT22;71610;42.628;23.378;2024-02-26T13:28:37;23.90;38.20
82039;DHT22;71610;42.628;23.378;2024-02-26T13:31:03;24.00;38.50
82039;DHT22;71610;42.628;23.378;2024-02-26T13:33:31;24.00;38.70
82039;DHT22;71610;42.628;23.378;2024-02-26T13:35:58;24.00;38.90
82039;DHT22;71610;42.628;23.378;2024-02-26T13:38:24;24.00;38.90
82039;DHT22;71610;42.628;23.378;2024-02-26T13:40:51;24.00;38.90
82039;DHT22;71610;42.628;23.378;2024-02-26T13:43:17;24.00;39.00
82039;DHT22;71610;42.628;23.378;2024-02-26T13:45:43;24.00;39.00
82039;DHT22;71610;42.628;23.378;2024-02-26T13:48:10;24.10;39.00
82039;DHT22;71610;42.628;23.378;2024-02-26T13:50:37;24.10;39.00
82039;DHT22;71610;42.628;23.378;2024-02-26T13:53:03;24.10;39.10
82039;DHT22;71610;42.628;23.378;2024-02-26T13:55:31;24.10;39.10
82039;DHT22;71610;42.628;23.378;2024-02-26T13:58:00;24.20;39.30
82039;DHT22;71610;42.628;23.378;2024-02-26T14:00:28;24.20;39.40
82039;DHT22;71610;42.628;23.378;2024-02-26T14:02:54;24.30;39.50
82039;DHT22;71610;42.628;23.378;2024-02-26T14:05:20;24.30;39.40
82039;DHT22;71610;42.628;23.378;2024-02-26T14:07:46;24.30;39.40
82039;DHT22;71610;42.628;23.378;2024-02-26T14:10:12;24.40;39.50
82039;DHT22;71610;42.628;23.378;2024-02-26T14:12:38;24.40;39.60
82039;DHT22;71610;42.628;23.378;2024-02-26T14:15:07;24.40;40.70
82039;DHT22;71610;42.628;23.378;2024-02-26T14:17:33;24.40;39.40
82039;DHT22;71610;42.628;23.378;2024-02-26T14:19:59;24.30;39.40
82039;DHT22;71610;42.628;23.378;2024-02-26T14:22:25;24.20;39.40
82039;DHT22;71610;42.628;23.378;2024-02-26T14:24:56;24.20;39.30
82039;DHT22;71610;42.628;23.378;2024-02-26T14:27:22;24.10;39.30
82039;DHT22;71610;42.628;23.378;2024-02-26T14:29:48;24.00;39.30
82039;DHT22;71610;42.628;23.378;2024-02-26T14:32:14;23.90;39.30
82039;DHT22;71610;42.628;23.378;2024-02-26T14:34:40;23.90;39.40
82039;DHT22;71610;42.628;23.378;2024-02-26T14:37:06;23.80;39.20
82039;DHT22;71610;42.628;23.378;2024-02-26T14:39:32;23.80;39.30
82039;DHT22;71610;42.628;23.378;2024-02-26T14:41:59;23.70;39.30
82039;DHT22;71610;42.628;23.378;2024-02-26T14:44:25;23.60;39.30
82039;DHT22;71610;42.628;23.378;2024-02-26T14:46:51;23.60;39.40
82039;DHT22;71610;42.628;23.378;2024-02-26T14:49:17;23.60;39.60
82039;DHT22;71610;42.628;23.378;2024-02-26T14:51:44;23.50;39.50
82039;DHT22;71610;42.628;23.378;2024-02-26T14:54:13;23.50;39.50
82039;DHT22;71610;42.628;23.378;2024-02-26T14:56:38;23.40;39.60
82039;DHT22;71610;42.628;23.378;2024-02-26T14:59:04;23.40;39.60
82039;DHT22;71610;42.628;23.378;2024-02-26T15:01:30;23.40;39.60
82039;DHT22;71610;42.628;23.378;2024-02-26T15:03:56;23.30;39.70
82039;DHT22;71610;42.628;23.378;2024-02-26T15:06:23;23.30;39.70
82039;DHT22;71610;42.628;23.378;2024-02-26T15:08:48;23.30;39.70
82039;DHT22;71610;42.628;23.378;2024-02-26T15:11:14;23.30;39.70
82039;DHT22;71610;42.628;23.378;2024-02-26T15:13:40;23.30;39.70
82039;DHT22;71610;42.628;23.378;2024-02-26T15:16:06;23.20;39.70
82039;DHT22;71610;42.628;23.378;2024-02-26T15:18:32;23.20;39.70